sensor_id;sensor_type;location;lat;lon;timestamp;P1;durP1;ratioP1;P2;durP2;ratioP2
77828;SDS011;67019;51.034;3.728;2023-08-06T00:00:12;14.18;;;7.80;;
77828;SDS011;67019;51.034;3.728;2023-08-06T00:02:40;15.10;;;7.00;;
77828;SDS011;67019;51.034;3.728;2023-08-06T00:05:07;14.15;;;8.58;;
77828;SDS011;67019;51.034;3.728;2023-08-06T00:07:35;12.63;;;8.08;;
77828;SDS011;67019;51.034;3.728;2023-08-06T00:10:03;13.88;;;9.20;;
77828;SDS011;67019;51.034;3.728;2023-08-06T00:12:31;18.12;;;9.48;;
77828;SDS011;67019;51.034;3.728;2023-08-06T00:14:58;18.32;;;10.15;;
77828;SDS011;67019;51.034;3.728;2023-08-06T00:17:26;20.02;;;9.83;;
77828;SDS011;67019;51.034;3.728;2023-08-06T00:19:53;18.62;;;9.08;;
77828;SDS011;67019;51.034;3.728;2023-08-06T00:22:21;18.60;;;9.80;;
77828;SDS011;67019;51.034;3.728;2023-08-06T00:24:49;20.12;;;9.88;;
77828;SDS011;67019;51.034;3.728;2023-08-06T00:27:18;16.85;;;9.85;;
77828;SDS011;67019;51.034;3.728;2023-08-06T00:29:45;18.57;;;10.93;;
77828;SDS011;67019;51.034;3.728;2023-08-06T00:32:13;18.10;;;8.73;;
77828;SDS011;67019;51.034;3.728;2023-08-06T00:34:41;15.58;;;8.58;;
77828;SDS011;67019;51.034;3.728;2023-08-06T00:37:08;12.43;;;7.60;;
77828;SDS011;67019;51.034;3.728;2023-08-06T00:39:36;10.80;;;7.00;;
77828;SDS011;67019;51.034;3.728;2023-08-06T00:42:03;11.90;;;6.15;;
77828;SDS011;67019;51.034;3.728;2023-08-06T00:44:31;11.93;;;7.03;;
77828;SDS011;67019;51.034;3.728;2023-08-06T00:46:59;11.97;;;6.25;;
77828;SDS011;67019;51.034;3.728;2023-08-06T00:49:27;13.08;;;4.92;;
77828;SDS011;67019;51.034;3.728;2023-08-06T00:51:54;16.73;;;3.83;;
77828;SDS011;67019;51.034;3.728;2023-08-06T00:54:23;13.45;;;5.15;;
77828;SDS011;67019;51.034;3.728;2023-08-06T00:56:51;9.63;;;3.02;;
77828;SDS011;67019;51.034;3.728;2023-08-06T00:59:19;12.93;;;2.83;;
77828;SDS011;67019;51.034;3.728;2023-08-06T01:01:48;11.43;;;3.15;;
77828;SDS011;67019;51.034;3.728;2023-08-06T01:04:16;13.55;;;3.55;;
77828;SDS011;67019;51.034;3.728;2023-08-06T01:12:32;9.58;;;4.85;;
77828;SDS011;67019;51.034;3.728;2023-08-06T01:17:29;9.15;;;4.55;;
77828;SDS011;67019;51.034;3.728;2023-08-06T01:19:58;18.48;;;5.87;;
77828;SDS011;67019;51.034;3.728;2023-08-06T01:22:26;10.65;;;5.80;;
77828;SDS011;67019;51.034;3.728;2023-08-06T01:24:53;17.82;;;6.33;;
77828;SDS011;67019;51.034;3.728;2023-08-06T01:27:23;17.73;;;8.80;;
77828;SDS011;67019;51.034;3.728;2023-08-06T01:32:20;19.27;;;9.53;;
77828;SDS011;67019;51.034;3.728;2023-08-06T01:34:49;24.55;;;11.73;;
77828;SDS011;67019;51.034;3.728;2023-08-06T01:37:19;24.18;;;11.25;;
77828;SDS011;67019;51.034;3.728;2023-08-06T01:39:47;24.23;;;11.97;;
77828;SDS011;67019;51.034;3.728;2023-08-06T01:42:14;28.42;;;13.38;;
77828;SDS011;67019;51.034;3.728;2023-08-06T01:44:42;22.20;;;12.20;;
77828;SDS011;67019;51.034;3.728;2023-08-06T01:47:10;27.40;;;12.58;;
77828;SDS011;67019;51.034;3.728;2023-08-06T01:49:39;23.67;;;12.78;;
77828;SDS011;67019;51.034;3.728;2023-08-06T01:52:07;21.12;;;13.28;;
77828;SDS011;67019;51.034;3.728;2023-08-06T01:54:34;21.02;;;10.43;;
77828;SDS011;67019;51.034;3.728;2023-08-06T01:57:02;11.35;;;6.87;;
77828;SDS011;67019;51.034;3.728;2023-08-06T01:59:30;12.88;;;7.00;;
77828;SDS011;67019;51.034;3.728;2023-08-06T02:01:57;10.95;;;6.92;;
77828;SDS011;67019;51.034;3.728;2023-08-06T02:04:25;11.05;;;5.78;;
77828;SDS011;67019;51.034;3.728;2023-08-06T02:06:53;9.75;;;4.80;;
77828;SDS011;67019;51.034;3.728;2023-08-06T02:09:22;6.28;;;4.65;;
77828;SDS011;67019;51.034;3.728;2023-08-06T02:11:49;9.58;;;3.90;;
77828;SDS011;67019;51.034;3.728;2023-08-06T02:14:17;8.30;;;3.40;;
77828;SDS011;67019;51.034;3.728;2023-08-06T02:16:45;9.08;;;3.45;;
77828;SDS011;67019;51.034;3.728;2023-08-06T02:19:15;7.28;;;1.98;;
77828;SDS011;67019;51.034;3.728;2023-08-06T02:21:43;6.95;;;1.67;;
77828;SDS011;67019;51.034;3.728;2023-08-06T02:24:10;4.10;;;1.77;;
77828;SDS011;67019;51.034;3.728;2023-08-06T02:26:38;9.15;;;1.77;;
77828;SDS011;67019;51.034;3.728;2023-08-06T02:29:07;6.30;;;2.12;;
77828;SDS011;67019;51.034;3.728;2023-08-06T02:31:35;5.60;;;2.50;;
77828;SDS011;67019;51.034;3.728;2023-08-06T02:34:03;8.65;;;2.35;;
77828;SDS011;67019;51.034;3.728;2023-08-06T02:36:30;8.65;;;2.72;;
77828;SDS011;67019;51.034;3.728;2023-08-06T02:38:58;8.95;;;2.45;;
77828;SDS011;67019;51.034;3.728;2023-08-06T02:41:26;8.60;;;2.75;;
77828;SDS011;67019;51.034;3.728;2023-08-06T02:43:54;7.35;;;2.67;;
77828;SDS011;67019;51.034;3.728;2023-08-06T02:46:22;8.33;;;2.55;;
77828;SDS011;67019;51.034;3.728;2023-08-06T02:48:50;10.05;;;2.90;;
77828;SDS011;67019;51.034;3.728;2023-08-06T02:51:17;6.20;;;2.70;;
77828;SDS011;67019;51.034;3.728;2023-08-06T02:53:45;9.18;;;2.58;;
77828;SDS011;67019;51.034;3.728;2023-08-06T02:56:15;7.92;;;2.92;;
77828;SDS011;67019;51.034;3.728;2023-08-06T02:58:42;7.60;;;3.45;;
77828;SDS011;67019;51.034;3.728;2023-08-06T03:01:10;17.12;;;4.92;;
77828;SDS011;67019;51.034;3.728;2023-08-06T03:03:38;13.53;;;5.12;;
77828;SDS011;67019;51.034;3.728;2023-08-06T03:06:06;10.93;;;5.53;;
77828;SDS011;67019;51.034;3.728;2023-08-06T03:08:33;14.50;;;6.62;;
77828;SDS011;67019;51.034;3.728;2023-08-06T03:11:01;10.10;;;5.45;;
77828;SDS011;67019;51.034;3.728;2023-08-06T03:13:28;9.15;;;5.72;;
77828;SDS011;67019;51.034;3.728;2023-08-06T03:15:57;14.25;;;6.15;;
77828;SDS011;67019;51.034;3.728;2023-08-06T03:18:28;20.43;;;6.40;;
77828;SDS011;67019;51.034;3.728;2023-08-06T03:20:56;14.13;;;5.72;;
77828;SDS011;67019;51.034;3.728;2023-08-06T03:23:23;18.50;;;7.28;;
77828;SDS011;67019;51.034;3.728;2023-08-06T03:25:51;16.12;;;6.87;;
77828;SDS011;67019;51.034;3.728;2023-08-06T03:28:18;19.05;;;8.23;;
77828;SDS011;67019;51.034;3.728;2023-08-06T03:30:48;15.00;;;7.40;;
77828;SDS011;67019;51.034;3.728;2023-08-06T03:33:17;26.05;;;8.03;;
77828;SDS011;67019;51.034;3.728;2023-08-06T03:35:44;21.00;;;8.13;;
77828;SDS011;67019;51.034;3.728;2023-08-06T03:38:12;11.75;;;6.47;;
77828;SDS011;67019;51.034;3.728;2023-08-06T03:40:40;18.27;;;6.65;;
77828;SDS011;67019;51.034;3.728;2023-08-06T03:43:07;16.75;;;6.80;;
77828;SDS011;67019;51.034;3.728;2023-08-06T03:45:35;14.75;;;5.45;;
77828;SDS011;67019;51.034;3.728;2023-08-06T03:50:49;19.87;;;7.40;;
77828;SDS011;67019;51.034;3.728;2023-08-06T03:53:17;19.98;;;5.03;;
77828;SDS011;67019;51.034;3.728;2023-08-06T03:55:44;12.33;;;4.47;;
77828;SDS011;67019;51.034;3.728;2023-08-06T03:58:12;15.10;;;5.50;;
77828;SDS011;67019;51.034;3.728;2023-08-06T04:00:41;14.95;;;5.33;;
77828;SDS011;67019;51.034;3.728;2023-08-06T04:03:09;14.58;;;4.25;;
77828;SDS011;67019;51.034;3.728;2023-08-06T04:05:36;10.65;;;3.55;;
77828;SDS011;67019;51.034;3.728;2023-08-06T04:08:04;17.30;;;3.42;;
77828;SDS011;67019;51.034;3.728;2023-08-06T04:10:32;21.25;;;4.37;;
77828;SDS011;67019;51.034;3.728;2023-08-06T04:12:59;10.55;;;3.92;;
77828;SDS011;67019;51.034;3.728;2023-08-06T04:15:27;14.07;;;3.92;;
77828;SDS011;67019;51.034;3.728;2023-08-06T04:17:55;9.73;;;3.15;;
77828;SDS011;67019;51.034;3.728;2023-08-06T04:20:22;10.75;;;3.12;;
77828;SDS011;67019;51.034;3.728;2023-08-06T04:22:50;12.93;;;2.77;;
77828;SDS011;67019;51.034;3.728;2023-08-06T04:25:19;11.22;;;3.95;;
77828;SDS011;67019;51.034;3.728;2023-08-06T04:27:47;7.97;;;2.92;;
77828;SDS011;67019;51.034;3.728;2023-08-06T04:30:14;9.50;;;2.92;;
77828;SDS011;67019;51.034;3.728;2023-08-06T04:32:42;14.15;;;2.92;;
77828;SDS011;67019;51.034;3.728;2023-08-06T04:35:10;9.45;;;2.70;;
77828;SDS011;67019;51.034;3.728;2023-08-06T04:37:37;8.53;;;3.47;;
77828;SDS011;67019;51.034;3.728;2023-08-06T04:40:06;7.22;;;3.17;;
77828;SDS011;67019;51.034;3.728;2023-08-06T04:42:35;11.35;;;3.12;;
77828;SDS011;67019;51.034;3.728;2023-08-06T04:45:04;8.03;;;3.37;;
77828;SDS011;67019;51.034;3.728;2023-08-06T04:47:32;8.57;;;3.00;;
77828;SDS011;67019;51.034;3.728;2023-08-06T04:50:00;12.68;;;4.37;;
77828;SDS011;67019;51.034;3.728;2023-08-06T04:52:28;13.15;;;4.25;;
77828;SDS011;67019;51.034;3.728;2023-08-06T04:54:57;11.85;;;3.40;;
77828;SDS011;67019;51.034;3.728;2023-08-06T04:57:25;13.78;;;3.55;;
77828;SDS011;67019;51.034;3.728;2023-08-06T04:59:52;17.35;;;3.37;;
77828;SDS011;67019;51.034;3.728;2023-08-06T05:02:20;10.60;;;3.30;;
77828;SDS011;67019;51.034;3.728;2023-08-06T05:04:48;6.97;;;3.42;;
77828;SDS011;67019;51.034;3.728;2023-08-06T05:07:15;11.10;;;3.35;;
77828;SDS011;67019;51.034;3.728;2023-08-06T05:09:43;12.18;;;3.83;;
77828;SDS011;67019;51.034;3.728;2023-08-06T05:12:10;10.70;;;3.67;;
77828;SDS011;67019;51.034;3.728;2023-08-06T05:14:38;9.70;;;3.33;;
77828;SDS011;67019;51.034;3.728;2023-08-06T05:17:06;11.25;;;3.67;;
77828;SDS011;67019;51.034;3.728;2023-08-06T05:19:33;10.38;;;4.10;;
77828;SDS011;67019;51.034;3.728;2023-08-06T05:22:01;12.13;;;3.58;;
77828;SDS011;67019;51.034;3.728;2023-08-06T05:24:32;13.40;;;4.25;;
77828;SDS011;67019;51.034;3.728;2023-08-06T05:26:59;11.43;;;3.85;;
77828;SDS011;67019;51.034;3.728;2023-08-06T05:29:26;9.75;;;3.45;;
77828;SDS011;67019;51.034;3.728;2023-08-06T05:31:54;7.85;;;3.12;;
77828;SDS011;67019;51.034;3.728;2023-08-06T05:34:22;16.25;;;4.28;;
77828;SDS011;67019;51.034;3.728;2023-08-06T05:36:50;12.75;;;3.70;;
77828;SDS011;67019;51.034;3.728;2023-08-06T05:39:18;10.05;;;3.70;;
77828;SDS011;67019;51.034;3.728;2023-08-06T05:41:46;10.38;;;3.30;;
77828;SDS011;67019;51.034;3.728;2023-08-06T05:44:14;11.35;;;4.15;;
77828;SDS011;67019;51.034;3.728;2023-08-06T05:46:41;13.78;;;4.17;;
77828;SDS011;67019;51.034;3.728;2023-08-06T05:49:09;6.25;;;2.50;;
77828;SDS011;67019;51.034;3.728;2023-08-06T05:51:39;8.08;;;3.08;;
77828;SDS011;67019;51.034;3.728;2023-08-06T05:54:08;6.53;;;2.83;;
77828;SDS011;67019;51.034;3.728;2023-08-06T05:56:36;9.75;;;2.65;;
77828;SDS011;67019;51.034;3.728;2023-08-06T05:59:04;5.17;;;2.10;;
77828;SDS011;67019;51.034;3.728;2023-08-06T06:01:31;7.87;;;2.12;;
77828;SDS011;67019;51.034;3.728;2023-08-06T06:03:59;12.60;;;2.65;;
77828;SDS011;67019;51.034;3.728;2023-08-06T06:06:27;10.18;;;2.05;;
77828;SDS011;67019;51.034;3.728;2023-08-06T06:08:54;7.25;;;1.87;;
77828;SDS011;67019;51.034;3.728;2023-08-06T06:11:22;11.00;;;2.22;;
77828;SDS011;67019;51.034;3.728;2023-08-06T06:13:50;11.57;;;1.90;;
77828;SDS011;67019;51.034;3.728;2023-08-06T06:16:18;12.70;;;1.70;;
77828;SDS011;67019;51.034;3.728;2023-08-06T06:18:46;10.58;;;1.80;;
77828;SDS011;67019;51.034;3.728;2023-08-06T06:21:13;13.25;;;2.02;;
77828;SDS011;67019;51.034;3.728;2023-08-06T06:23:41;9.08;;;1.70;;
77828;SDS011;67019;51.034;3.728;2023-08-06T06:26:12;7.33;;;1.85;;
77828;SDS011;67019;51.034;3.728;2023-08-06T06:28:40;9.50;;;1.98;;
77828;SDS011;67019;51.034;3.728;2023-08-06T06:31:07;15.40;;;1.85;;
77828;SDS011;67019;51.034;3.728;2023-08-06T06:33:35;15.83;;;3.25;;
77828;SDS011;67019;51.034;3.728;2023-08-06T06:36:03;9.48;;;1.52;;
77828;SDS011;67019;51.034;3.728;2023-08-06T06:38:30;15.35;;;2.42;;
77828;SDS011;67019;51.034;3.728;2023-08-06T06:40:58;8.10;;;1.82;;
77828;SDS011;67019;51.034;3.728;2023-08-06T06:43:25;11.20;;;2.10;;
77828;SDS011;67019;51.034;3.728;2023-08-06T06:45:53;21.27;;;2.05;;
77828;SDS011;67019;51.034;3.728;2023-08-06T06:48:28;13.90;;;2.22;;
77828;SDS011;67019;51.034;3.728;2023-08-06T06:50:56;11.57;;;1.57;;
77828;SDS011;67019;51.034;3.728;2023-08-06T06:53:24;11.30;;;2.58;;
77828;SDS011;67019;51.034;3.728;2023-08-06T06:58:22;18.40;;;4.33;;
77828;SDS011;67019;51.034;3.728;2023-08-06T07:00:49;18.67;;;3.05;;
77828;SDS011;67019;51.034;3.728;2023-08-06T07:03:17;13.58;;;1.90;;
77828;SDS011;67019;51.034;3.728;2023-08-06T07:05:46;5.10;;;1.35;;
77828;SDS011;67019;51.034;3.728;2023-08-06T07:08:14;7.28;;;1.82;;
77828;SDS011;67019;51.034;3.728;2023-08-06T07:10:41;9.95;;;1.82;;
77828;SDS011;67019;51.034;3.728;2023-08-06T07:13:09;6.87;;;1.82;;
77828;SDS011;67019;51.034;3.728;2023-08-06T07:15:37;13.45;;;2.45;;
77828;SDS011;67019;51.034;3.728;2023-08-06T07:18:05;8.93;;;1.15;;
77828;SDS011;67019;51.034;3.728;2023-08-06T07:20:32;8.93;;;1.90;;
77828;SDS011;67019;51.034;3.728;2023-08-06T07:23:00;14.53;;;1.95;;
77828;SDS011;67019;51.034;3.728;2023-08-06T07:25:27;10.50;;;1.80;;
77828;SDS011;67019;51.034;3.728;2023-08-06T07:27:55;9.48;;;2.02;;
77828;SDS011;67019;51.034;3.728;2023-08-06T07:30:23;13.55;;;2.87;;
77828;SDS011;67019;51.034;3.728;2023-08-06T07:32:51;10.35;;;2.00;;
77828;SDS011;67019;51.034;3.728;2023-08-06T07:35:19;12.37;;;3.02;;
77828;SDS011;67019;51.034;3.728;2023-08-06T07:37:47;3.72;;;1.92;;
77828;SDS011;67019;51.034;3.728;2023-08-06T07:40:15;9.83;;;1.80;;
77828;SDS011;67019;51.034;3.728;2023-08-06T07:42:44;1.82;;;1.07;;
77828;SDS011;67019;51.034;3.728;2023-08-06T07:45:11;9.28;;;2.65;;
77828;SDS011;67019;51.034;3.728;2023-08-06T07:47:39;10.63;;;2.12;;
77828;SDS011;67019;51.034;3.728;2023-08-06T07:50:08;10.25;;;1.42;;
77828;SDS011;67019;51.034;3.728;2023-08-06T07:52:36;6.70;;;2.17;;
77828;SDS011;67019;51.034;3.728;2023-08-06T07:55:04;9.13;;;1.90;;
77828;SDS011;67019;51.034;3.728;2023-08-06T07:57:32;6.83;;;1.98;;
77828;SDS011;67019;51.034;3.728;2023-08-06T08:00:00;6.42;;;2.95;;
77828;SDS011;67019;51.034;3.728;2023-08-06T08:02:29;9.18;;;2.50;;
77828;SDS011;67019;51.034;3.728;2023-08-06T08:04:57;3.77;;;1.60;;
77828;SDS011;67019;51.034;3.728;2023-08-06T08:07:24;10.60;;;2.17;;
77828;SDS011;67019;51.034;3.728;2023-08-06T08:09:53;9.10;;;2.08;;
77828;SDS011;67019;51.034;3.728;2023-08-06T08:12:21;7.30;;;1.47;;
77828;SDS011;67019;51.034;3.728;2023-08-06T08:14:49;10.98;;;1.40;;
77828;SDS011;67019;51.034;3.728;2023-08-06T08:17:16;15.88;;;3.22;;
77828;SDS011;67019;51.034;3.728;2023-08-06T08:19:44;8.53;;;1.95;;
77828;SDS011;67019;51.034;3.728;2023-08-06T08:22:12;12.68;;;2.08;;
77828;SDS011;67019;51.034;3.728;2023-08-06T08:24:40;13.53;;;2.52;;
77828;SDS011;67019;51.034;3.728;2023-08-06T08:27:07;12.00;;;2.10;;
77828;SDS011;67019;51.034;3.728;2023-08-06T08:29:35;7.80;;;2.87;;
77828;SDS011;67019;51.034;3.728;2023-08-06T08:32:03;13.32;;;2.25;;
77828;SDS011;67019;51.034;3.728;2023-08-06T08:34:30;12.20;;;1.98;;
77828;SDS011;67019;51.034;3.728;2023-08-06T08:36:58;9.33;;;2.60;;
77828;SDS011;67019;51.034;3.728;2023-08-06T08:39:26;7.17;;;1.65;;
77828;SDS011;67019;51.034;3.728;2023-08-06T08:41:53;19.27;;;4.55;;
77828;SDS011;67019;51.034;3.728;2023-08-06T08:44:21;10.63;;;3.30;;
77828;SDS011;67019;51.034;3.728;2023-08-06T08:46:50;9.40;;;1.95;;
77828;SDS011;67019;51.034;3.728;2023-08-06T08:49:18;14.73;;;2.33;;
77828;SDS011;67019;51.034;3.728;2023-08-06T08:51:56;11.70;;;2.27;;
77828;SDS011;67019;51.034;3.728;2023-08-06T08:54:21;11.03;;;2.05;;
77828;SDS011;67019;51.034;3.728;2023-08-06T08:56:50;12.47;;;2.15;;
77828;SDS011;67019;51.034;3.728;2023-08-06T08:59:20;16.80;;;3.20;;
77828;SDS011;67019;51.034;3.728;2023-08-06T09:01:48;14.43;;;2.67;;
77828;SDS011;67019;51.034;3.728;2023-08-06T09:04:17;8.63;;;2.33;;
77828;SDS011;67019;51.034;3.728;2023-08-06T09:06:46;6.33;;;2.00;;
77828;SDS011;67019;51.034;3.728;2023-08-06T09:09:17;15.25;;;2.40;;
77828;SDS011;67019;51.034;3.728;2023-08-06T09:14:15;10.18;;;2.37;;
77828;SDS011;67019;51.034;3.728;2023-08-06T09:16:43;9.88;;;2.20;;
77828;SDS011;67019;51.034;3.728;2023-08-06T09:19:12;9.33;;;2.17;;
77828;SDS011;67019;51.034;3.728;2023-08-06T09:21:43;13.22;;;1.80;;
77828;SDS011;67019;51.034;3.728;2023-08-06T09:24:13;10.68;;;2.80;;
77828;SDS011;67019;51.034;3.728;2023-08-06T09:26:44;6.80;;;1.82;;
77828;SDS011;67019;51.034;3.728;2023-08-06T09:29:11;10.35;;;1.70;;
77828;SDS011;67019;51.034;3.728;2023-08-06T09:31:42;8.03;;;2.25;;
77828;SDS011;67019;51.034;3.728;2023-08-06T09:34:20;11.20;;;1.90;;
77828;SDS011;67019;51.034;3.728;2023-08-06T09:36:49;7.37;;;2.08;;
77828;SDS011;67019;51.034;3.728;2023-08-06T09:39:20;12.13;;;2.90;;
77828;SDS011;67019;51.034;3.728;2023-08-06T09:41:52;11.12;;;2.60;;
77828;SDS011;67019;51.034;3.728;2023-08-06T09:44:24;14.60;;;2.55;;
77828;SDS011;67019;51.034;3.728;2023-08-06T09:46:54;8.95;;;1.82;;
77828;SDS011;67019;51.034;3.728;2023-08-06T09:49:26;5.53;;;1.60;;
77828;SDS011;67019;51.034;3.728;2023-08-06T09:52:01;13.13;;;2.10;;
77828;SDS011;67019;51.034;3.728;2023-08-06T09:54:29;11.65;;;2.05;;
77828;SDS011;67019;51.034;3.728;2023-08-06T09:56:59;27.17;;;2.90;;
77828;SDS011;67019;51.034;3.728;2023-08-06T10:02:49;9.50;;;2.12;;
77828;SDS011;67019;51.034;3.728;2023-08-06T10:08:43;9.73;;;3.08;;
77828;SDS011;67019;51.034;3.728;2023-08-06T10:11:10;15.20;;;2.60;;
77828;SDS011;67019;51.034;3.728;2023-08-06T10:13:40;8.93;;;2.85;;
77828;SDS011;67019;51.034;3.728;2023-08-06T10:16:08;10.32;;;2.20;;
77828;SDS011;67019;51.034;3.728;2023-08-06T10:18:36;10.45;;;2.30;;
77828;SDS011;67019;51.034;3.728;2023-08-06T10:21:07;6.23;;;1.47;;
77828;SDS011;67019;51.034;3.728;2023-08-06T10:23:40;12.70;;;1.90;;
77828;SDS011;67019;51.034;3.728;2023-08-06T10:26:06;9.25;;;1.80;;
77828;SDS011;67019;51.034;3.728;2023-08-06T10:28:34;9.38;;;3.08;;
77828;SDS011;67019;51.034;3.728;2023-08-06T10:31:05;5.05;;;1.40;;
77828;SDS011;67019;51.034;3.728;2023-08-06T10:33:47;8.25;;;1.60;;
77828;SDS011;67019;51.034;3.728;2023-08-06T10:36:14;10.45;;;2.60;;
77828;SDS011;67019;51.034;3.728;2023-08-06T10:38:45;9.83;;;1.50;;
77828;SDS011;67019;51.034;3.728;2023-08-06T10:41:15;11.05;;;2.15;;
77828;SDS011;67019;51.034;3.728;2023-08-06T10:43:50;4.53;;;0.90;;
77828;SDS011;67019;51.034;3.728;2023-08-06T10:46:26;7.55;;;1.37;;
77828;SDS011;67019;51.034;3.728;2023-08-06T10:48:51;8.83;;;2.35;;
77828;SDS011;67019;51.034;3.728;2023-08-06T10:51:19;16.17;;;2.27;;
77828;SDS011;67019;51.034;3.728;2023-08-06T10:53:48;10.55;;;1.42;;
77828;SDS011;67019;51.034;3.728;2023-08-06T10:56:16;6.08;;;1.95;;
77828;SDS011;67019;51.034;3.728;2023-08-06T10:58:45;17.07;;;1.87;;
77828;SDS011;67019;51.034;3.728;2023-08-06T11:01:13;13.38;;;2.67;;
77828;SDS011;67019;51.034;3.728;2023-08-06T11:03:44;14.23;;;2.63;;
77828;SDS011;67019;51.034;3.728;2023-08-06T11:06:17;12.13;;;2.65;;
77828;SDS011;67019;51.034;3.728;2023-08-06T11:08:52;7.28;;;2.92;;
77828;SDS011;67019;51.034;3.728;2023-08-06T11:11:21;17.27;;;5.08;;
77828;SDS011;67019;51.034;3.728;2023-08-06T11:13:50;14.93;;;2.45;;
77828;SDS011;67019;51.034;3.728;2023-08-06T11:16:19;9.08;;;2.08;;
77828;SDS011;67019;51.034;3.728;2023-08-06T11:18:52;10.68;;;2.35;;
77828;SDS011;67019;51.034;3.728;2023-08-06T11:21:22;16.70;;;2.20;;
77828;SDS011;67019;51.034;3.728;2023-08-06T11:23:51;7.28;;;2.55;;
77828;SDS011;67019;51.034;3.728;2023-08-06T11:26:20;10.38;;;2.12;;
77828;SDS011;67019;51.034;3.728;2023-08-06T11:28:49;11.85;;;3.10;;
77828;SDS011;67019;51.034;3.728;2023-08-06T11:31:23;13.32;;;2.20;;
77828;SDS011;67019;51.034;3.728;2023-08-06T11:33:51;7.83;;;2.37;;
77828;SDS011;67019;51.034;3.728;2023-08-06T11:36:29;16.82;;;2.25;;
77828;SDS011;67019;51.034;3.728;2023-08-06T11:38:57;18.32;;;2.85;;
77828;SDS011;67019;51.034;3.728;2023-08-06T11:41:27;14.13;;;2.55;;
77828;SDS011;67019;51.034;3.728;2023-08-06T11:43:59;6.62;;;1.75;;
77828;SDS011;67019;51.034;3.728;2023-08-06T11:46:27;12.55;;;3.12;;
77828;SDS011;67019;51.034;3.728;2023-08-06T11:48:55;16.12;;;2.15;;
77828;SDS011;67019;51.034;3.728;2023-08-06T11:51:23;8.50;;;1.92;;
77828;SDS011;67019;51.034;3.728;2023-08-06T11:53:57;9.23;;;1.80;;
77828;SDS011;67019;51.034;3.728;2023-08-06T11:56:25;8.03;;;1.82;;
77828;SDS011;67019;51.034;3.728;2023-08-06T11:58:54;4.83;;;1.52;;
77828;SDS011;67019;51.034;3.728;2023-08-06T12:01:22;11.97;;;3.30;;
77828;SDS011;67019;51.034;3.728;2023-08-06T12:03:50;5.20;;;1.90;;
77828;SDS011;67019;51.034;3.728;2023-08-06T12:06:18;10.55;;;2.20;;
77828;SDS011;67019;51.034;3.728;2023-08-06T12:08:47;9.83;;;2.35;;
77828;SDS011;67019;51.034;3.728;2023-08-06T12:11:16;11.05;;;2.20;;
77828;SDS011;67019;51.034;3.728;2023-08-06T12:13:45;9.63;;;2.02;;
77828;SDS011;67019;51.034;3.728;2023-08-06T12:16:14;7.40;;;2.02;;
77828;SDS011;67019;51.034;3.728;2023-08-06T12:18:44;13.60;;;4.42;;
77828;SDS011;67019;51.034;3.728;2023-08-06T12:21:11;5.87;;;1.70;;
77828;SDS011;67019;51.034;3.728;2023-08-06T12:23:39;9.45;;;1.42;;
77828;SDS011;67019;51.034;3.728;2023-08-06T12:26:07;8.78;;;1.80;;
77828;SDS011;67019;51.034;3.728;2023-08-06T12:28:35;7.75;;;1.85;;
77828;SDS011;67019;51.034;3.728;2023-08-06T12:31:03;11.12;;;2.70;;
77828;SDS011;67019;51.034;3.728;2023-08-06T12:33:31;12.90;;;2.05;;
77828;SDS011;67019;51.034;3.728;2023-08-06T12:35:58;5.70;;;2.55;;
77828;SDS011;67019;51.034;3.728;2023-08-06T12:38:27;6.25;;;1.35;;
77828;SDS011;67019;51.034;3.728;2023-08-06T12:40:56;9.08;;;1.67;;
77828;SDS011;67019;51.034;3.728;2023-08-06T12:43:23;5.70;;;1.90;;
77828;SDS011;67019;51.034;3.728;2023-08-06T12:45:51;14.00;;;1.82;;
77828;SDS011;67019;51.034;3.728;2023-08-06T12:48:18;6.50;;;1.42;;
77828;SDS011;67019;51.034;3.728;2023-08-06T12:50:46;8.98;;;1.77;;
77828;SDS011;67019;51.034;3.728;2023-08-06T12:53:15;9.13;;;2.15;;
77828;SDS011;67019;51.034;3.728;2023-08-06T12:55:42;7.37;;;2.02;;
77828;SDS011;67019;51.034;3.728;2023-08-06T12:58:10;6.70;;;2.02;;
77828;SDS011;67019;51.034;3.728;2023-08-06T13:00:37;7.40;;;1.77;;
77828;SDS011;67019;51.034;3.728;2023-08-06T13:03:05;9.03;;;1.92;;
77828;SDS011;67019;51.034;3.728;2023-08-06T13:05:33;6.45;;;1.98;;
77828;SDS011;67019;51.034;3.728;2023-08-06T13:08:00;9.60;;;2.15;;
77828;SDS011;67019;51.034;3.728;2023-08-06T13:10:28;14.50;;;2.27;;
77828;SDS011;67019;51.034;3.728;2023-08-06T13:12:57;5.95;;;1.90;;
77828;SDS011;67019;51.034;3.728;2023-08-06T13:15:24;5.58;;;1.72;;
77828;SDS011;67019;51.034;3.728;2023-08-06T13:17:52;7.55;;;1.75;;
77828;SDS011;67019;51.034;3.728;2023-08-06T13:20:19;10.03;;;2.17;;
77828;SDS011;67019;51.034;3.728;2023-08-06T13:22:48;24.55;;;2.98;;
77828;SDS011;67019;51.034;3.728;2023-08-06T13:25:17;14.83;;;2.33;;
77828;SDS011;67019;51.034;3.728;2023-08-06T13:27:45;7.87;;;1.98;;
77828;SDS011;67019;51.034;3.728;2023-08-06T13:30:13;14.68;;;2.85;;
77828;SDS011;67019;51.034;3.728;2023-08-06T13:32:43;11.00;;;1.72;;
77828;SDS011;67019;51.034;3.728;2023-08-06T13:35:11;7.78;;;2.98;;
77828;SDS011;67019;51.034;3.728;2023-08-06T13:37:39;13.85;;;3.70;;
77828;SDS011;67019;51.034;3.728;2023-08-06T13:40:06;36.80;;;3.72;;
77828;SDS011;67019;51.034;3.728;2023-08-06T13:42:34;13.83;;;2.87;;
77828;SDS011;67019;51.034;3.728;2023-08-06T13:45:02;7.85;;;2.27;;
77828;SDS011;67019;51.034;3.728;2023-08-06T13:47:30;13.70;;;1.57;;
77828;SDS011;67019;51.034;3.728;2023-08-06T13:49:57;7.25;;;1.87;;
77828;SDS011;67019;51.034;3.728;2023-08-06T13:52:25;8.03;;;2.35;;
77828;SDS011;67019;51.034;3.728;2023-08-06T13:54:53;9.00;;;2.00;;
77828;SDS011;67019;51.034;3.728;2023-08-06T13:57:20;11.12;;;2.02;;
77828;SDS011;67019;51.034;3.728;2023-08-06T13:59:48;8.93;;;1.70;;
77828;SDS011;67019;51.034;3.728;2023-08-06T14:02:16;9.53;;;2.50;;
77828;SDS011;67019;51.034;3.728;2023-08-06T14:04:43;10.38;;;2.52;;
77828;SDS011;67019;51.034;3.728;2023-08-06T14:07:11;8.80;;;2.50;;
77828;SDS011;67019;51.034;3.728;2023-08-06T14:09:39;9.50;;;2.60;;
77828;SDS011;67019;51.034;3.728;2023-08-06T14:12:08;6.35;;;2.37;;
77828;SDS011;67019;51.034;3.728;2023-08-06T14:14:35;6.67;;;2.42;;
77828;SDS011;67019;51.034;3.728;2023-08-06T14:17:03;8.65;;;1.85;;
77828;SDS011;67019;51.034;3.728;2023-08-06T14:19:31;8.15;;;1.77;;
77828;SDS011;67019;51.034;3.728;2023-08-06T14:21:58;12.00;;;2.15;;
77828;SDS011;67019;51.034;3.728;2023-08-06T14:24:26;7.78;;;2.47;;
77828;SDS011;67019;51.034;3.728;2023-08-06T14:26:54;6.42;;;1.52;;
77828;SDS011;67019;51.034;3.728;2023-08-06T14:29:21;7.83;;;1.80;;
77828;SDS011;67019;51.034;3.728;2023-08-06T14:31:49;5.05;;;1.87;;
77828;SDS011;67019;51.034;3.728;2023-08-06T14:34:17;8.40;;;2.40;;
77828;SDS011;67019;51.034;3.728;2023-08-06T14:36:45;2.58;;;1.17;;
77828;SDS011;67019;51.034;3.728;2023-08-06T14:39:13;7.87;;;1.82;;
77828;SDS011;67019;51.034;3.728;2023-08-06T14:41:40;3.17;;;1.62;;
77828;SDS011;67019;51.034;3.728;2023-08-06T14:44:08;8.00;;;1.50;;
77828;SDS011;67019;51.034;3.728;2023-08-06T14:46:37;7.58;;;1.62;;
77828;SDS011;67019;51.034;3.728;2023-08-06T14:49:05;5.22;;;1.10;;
77828;SDS011;67019;51.034;3.728;2023-08-06T14:51:32;6.15;;;1.57;;
77828;SDS011;67019;51.034;3.728;2023-08-06T14:54:00;3.95;;;1.85;;
77828;SDS011;67019;51.034;3.728;2023-08-06T14:56:28;7.00;;;1.72;;
77828;SDS011;67019;51.034;3.728;2023-08-06T14:58:55;10.25;;;1.87;;
77828;SDS011;67019;51.034;3.728;2023-08-06T15:01:23;5.78;;;1.77;;
77828;SDS011;67019;51.034;3.728;2023-08-06T15:03:50;6.05;;;2.02;;
77828;SDS011;67019;51.034;3.728;2023-08-06T15:06:18;10.15;;;1.98;;
77828;SDS011;67019;51.034;3.728;2023-08-06T15:08:45;12.00;;;2.72;;
77828;SDS011;67019;51.034;3.728;2023-08-06T15:11:14;12.53;;;2.00;;